createdAt,value
2023-03-17T00:00:27.919Z,100110.63
2023-03-17T00:00:59.923Z,100109.75
2023-03-17T00:01:31.670Z,100109.69
2023-03-17T00:02:03.603Z,100105.25
2023-03-17T00:02:35.897Z,100114.00
2023-03-17T00:03:07.875Z,100109.69
2023-03-17T00:03:42.685Z,100111.44
2023-03-17T00:04:14.812Z,100100.94
2023-03-17T00:04:46.572Z,100105.22
2023-03-17T00:05:18.568Z,100113.00
2023-03-17T00:05:51.644Z,100113.06
2023-03-17T00:06:29.844Z,100106.91
2023-03-17T00:07:01.861Z,100109.56
2023-03-17T00:07:33.742Z,100106.91
2023-03-17T00:08:13.199Z,100106.06
2023-03-17T00:08:46.452Z,100103.47
2023-03-17T00:09:19.443Z,100101.66
2023-03-17T00:09:51.487Z,100093.78
2023-03-17T00:10:26.734Z,100099.03
2023-03-17T00:10:59.162Z,100100.72
2023-03-17T00:11:30.986Z,100095.53
2023-03-17T00:12:02.811Z,100099.03
2023-03-17T00:12:34.541Z,100107.78
2023-03-17T00:13:07.054Z,100094.59
2023-03-17T00:13:38.928Z,100098.97
2023-03-17T00:14:10.897Z,100099.03
2023-03-17T00:14:44.706Z,100105.13
2023-03-17T00:15:17.979Z,100101.66
2023-03-17T00:16:01.214Z,100107.72
2023-03-17T00:16:38.237Z,100104.22
2023-03-17T00:17:14.309Z,100104.28
2023-03-17T00:17:47.624Z,100105.22
2023-03-17T00:18:21.150Z,100100.91
2023-03-17T00:18:55.619Z,100100.97
2023-03-17T00:19:35.391Z,100102.81
2023-03-17T00:20:11.636Z,100106.38
2023-03-17T00:21:30.004Z,100106.38
2023-03-17T00:22:03.578Z,100109.06
2023-03-17T00:22:36.113Z,100101.25
2023-03-17T00:23:16.464Z,100097.81
2023-03-17T00:23:51.827Z,100096.13
2023-03-17T00:24:23.759Z,100097.94
2023-03-17T00:24:55.548Z,100091.00
2023-03-17T00:25:33.761Z,100091.94
2023-03-17T00:26:05.613Z,100097.25
2023-03-17T00:26:37.888Z,100098.13
2023-03-17T00:27:12.727Z,100092.88
2023-03-17T00:27:44.510Z,100089.31
2023-03-17T00:28:26.178Z,100085.84
2023-03-17T00:28:57.916Z,100091.09
2023-03-17T00:29:29.683Z,100087.63
2023-03-17T00:30:01.644Z,100088.47
2023-03-17T00:30:33.418Z,100088.44
2023-03-17T00:31:16.869Z,100089.38
2023-03-17T00:31:49.417Z,100094.69
2023-03-17T00:32:22.550Z,100091.19
2023-03-17T00:32:58.129Z,100097.31
2023-03-17T00:33:34.540Z,100097.34
2023-03-17T00:34:06.651Z,100093.00
2023-03-17T00:34:39.671Z,100095.63
2023-03-17T00:35:23.842Z,100102.69
2023-03-17T00:35:58.756Z,100095.63
2023-03-17T00:36:33.208Z,100095.59
2023-03-17T00:37:05.047Z,100088.63
2023-03-17T00:37:36.799Z,100095.63
2023-03-17T00:38:16.544Z,100103.56
2023-03-17T00:38:48.773Z,100086.13
2023-03-17T00:39:20.866Z,100091.41
2023-03-17T00:39:52.675Z,100093.09
2023-03-17T00:40:29.488Z,100086.03
2023-03-17T00:41:01.385Z,100085.97
2023-03-17T00:41:33.629Z,100090.16
2023-03-17T00:42:07.091Z,100085.72
2023-03-17T00:42:39.347Z,100077.91
2023-03-17T00:43:11.312Z,100071.84
2023-03-17T00:43:43.093Z,100078.69
2023-03-17T00:44:15.166Z,100083.03
2023-03-17T00:44:47.589Z,100075.97
2023-03-17T00:45:21.400Z,100075.03
2023-03-17T00:45:53.347Z,100078.47
2023-03-17T00:46:35.622Z,100078.53
2023-03-17T00:47:10.386Z,100075.91
2023-03-17T00:47:43.563Z,100074.16
2023-03-17T00:48:18.779Z,100079.41
2023-03-17T00:48:50.580Z,100075.91
2023-03-17T00:49:25.052Z,100077.63
2023-03-17T00:49:56.818Z,100072.41
2023-03-17T00:50:30.110Z,100075.84
2023-03-17T00:51:02.372Z,100076.78
2023-03-17T00:51:34.052Z,100071.59
2023-03-17T00:52:06.242Z,100078.66
2023-03-17T00:52:38.969Z,100081.31
2023-03-17T00:53:19.706Z,100081.41
2023-03-17T00:53:51.801Z,100077.91
2023-03-17T00:54:24.250Z,100077.94
2023-03-17T00:54:56.019Z,100077.09
2023-03-17T00:55:28.378Z,100071.03
2023-03-17T00:56:00.551Z,100083.31
2023-03-17T00:56:32.366Z,100078.97
2023-03-17T00:57:04.301Z,100077.28
2023-03-17T00:57:37.950Z,100070.34
2023-03-17T00:58:18.488Z,100075.72
2023-03-17T00:58:50.434Z,100073.03
2023-03-17T00:59:29.012Z,100067.91
2023-03-17T01:00:00.966Z,100068.78
2023-03-17T01:00:32.979Z,100065.38
2023-03-17T01:01:05.189Z,100073.22
2023-03-17T01:01:37.112Z,100062.81
2023-03-17T01:02:11.937Z,100069.78
2023-03-17T01:02:44.879Z,100068.06
2023-03-17T01:03:16.655Z,100072.47
2023-03-17T01:03:48.454Z,100068.19
2023-03-17T01:04:20.208Z,100066.44
2023-03-17T01:04:59.830Z,100070.00
2023-03-17T01:05:38.731Z,100071.75
2023-03-17T01:06:14.771Z,100065.66
2023-03-17T01:06:48.324Z,100070.03
2023-03-17T01:07:20.362Z,100073.50
2023-03-17T01:07:57.851Z,100083.06
2023-03-17T01:08:30.387Z,100074.25
2023-03-17T01:09:02.183Z,100082.13
2023-03-17T01:09:34.132Z,100074.25
2023-03-17T01:10:16.890Z,100071.63
2023-03-17T01:10:48.710Z,100072.50
2023-03-17T01:11:20.727Z,100070.81
2023-03-17T01:11:53.621Z,100064.69
2023-03-17T01:12:26.393Z,100070.81
2023-03-17T01:12:59.606Z,100069.94
2023-03-17T01:13:31.486Z,100073.44
2023-03-17T01:14:03.536Z,100069.00
2023-03-17T01:14:37.811Z,100071.69
2023-03-17T01:15:10.750Z,100063.00
2023-03-17T01:15:45.995Z,100063.88
2023-03-17T01:16:18.051Z,100063.81
2023-03-17T01:16:50.640Z,100063.88
2023-03-17T01:17:23.115Z,100062.94
2023-03-17T01:17:55.894Z,100065.56
2023-03-17T01:18:27.796Z,100065.56
2023-03-17T01:19:00.177Z,100061.19
2023-03-17T01:19:31.904Z,100062.06
2023-03-17T01:20:06.722Z,100065.56
2023-03-17T01:20:39.774Z,100063.81
2023-03-17T01:21:11.560Z,100070.81
2023-03-17T01:21:43.307Z,100069.97
2023-03-17T01:22:15.117Z,100072.63
2023-03-17T01:22:46.850Z,100069.06
2023-03-17T01:23:18.597Z,100066.38
2023-03-17T01:23:50.279Z,100064.53
2023-03-17T01:24:22.014Z,100064.56
2023-03-17T01:24:53.805Z,100064.56
2023-03-17T01:25:26.716Z,100063.75
2023-03-17T01:25:58.475Z,100060.31
2023-03-17T01:26:30.295Z,100063.75
2023-03-17T01:27:02.732Z,100062.84
2023-03-17T01:27:36.657Z,100062.88
2023-03-17T01:28:16.891Z,100068.09
2023-03-17T01:28:48.582Z,100064.69
2023-03-17T01:29:20.299Z,100060.31
2023-03-17T01:29:55.795Z,100057.69
2023-03-17T01:30:32.169Z,100057.69
2023-03-17T01:31:05.104Z,100051.59
2023-03-17T01:31:37.499Z,100054.22
2023-03-17T01:32:09.352Z,100055.06
2023-03-17T01:32:41.105Z,100059.47
2023-03-17T01:33:14.743Z,100055.97
2023-03-17T01:33:47.449Z,100058.63
2023-03-17T01:34:19.205Z,100062.13
2023-03-17T01:34:50.976Z,100063.91
2023-03-17T01:35:24.513Z,100059.56
2023-03-17T01:35:56.321Z,100069.16
2023-03-17T01:36:28.009Z,100060.44
2023-03-17T01:37:00.151Z,100064.81
2023-03-17T01:37:32.208Z,100056.91
2023-03-17T01:38:06.015Z,100065.66
2023-03-17T01:38:37.768Z,100061.25
2023-03-17T01:39:09.511Z,100061.28
2023-03-17T01:39:42.038Z,100069.13
2023-03-17T01:40:18.200Z,100063.03
2023-03-17T01:40:52.021Z,100056.88
2023-03-17T01:41:23.763Z,100064.75
2023-03-17T01:42:01.357Z,100065.66
2023-03-17T01:42:33.470Z,100062.16
2023-03-17T01:43:10.721Z,100063.06
2023-03-17T01:43:42.712Z,100057.81
2023-03-17T01:44:19.262Z,100067.44
2023-03-17T01:45:27.947Z,100053.44
2023-03-17T01:46:18.338Z,100065.63
2023-03-17T01:46:50.079Z,100057.78
2023-03-17T01:47:24.629Z,100058.69
2023-03-17T01:47:56.419Z,100062.19
2023-03-17T01:48:30.390Z,100068.28
2023-03-17T01:49:21.115Z,100070.91
2023-03-17T01:49:53.100Z,100070.91
2023-03-17T01:50:24.966Z,100068.25
2023-03-17T01:50:58.990Z,100070.00
2023-03-17T01:51:43.032Z,100073.53
2023-03-17T01:52:20.793Z,100067.47
2023-03-17T01:52:53.781Z,100065.72
2023-03-17T01:53:26.622Z,100073.59
2023-03-17T01:54:02.277Z,100070.09
2023-03-17T01:54:50.538Z,100068.34
2023-03-17T01:55:22.331Z,100070.97
2023-03-17T01:55:57.977Z,100074.47
2023-03-17T01:56:30.282Z,100070.94
2023-03-17T01:57:11.050Z,100063.97
2023-03-17T01:57:53.536Z,100070.09
2023-03-17T01:58:26.725Z,100076.16
2023-03-17T01:59:02.944Z,100070.09
2023-03-17T01:59:39.622Z,100070.94
2023-03-17T02:00:19.694Z,100061.34
2023-03-17T02:00:51.812Z,100066.59
2023-03-17T02:01:30.728Z,100068.34
2023-03-17T02:02:06.673Z,100062.25
2023-03-17T02:02:42.566Z,100059.66
2023-03-17T02:03:14.371Z,100057.91
2023-03-17T02:03:48.292Z,100054.41
2023-03-17T02:04:21.050Z,100064.88
2023-03-17T02:04:53.237Z,100057.03
2023-03-17T02:05:28.558Z,100057.09
2023-03-17T02:06:02.297Z,100062.28
2023-03-17T02:06:37.042Z,100053.53
2023-03-17T02:07:12.690Z,100059.66
2023-03-17T02:07:45.312Z,100066.59
2023-03-17T02:08:17.795Z,100065.72
2023-03-17T02:08:49.508Z,100068.34
2023-03-17T02:09:21.446Z,100059.59
2023-03-17T02:09:54.714Z,100064.03
2023-03-17T02:10:28.959Z,100068.41
2023-03-17T02:11:03.522Z,100070.16
2023-03-17T02:11:35.955Z,100064.91
2023-03-17T02:12:09.275Z,100063.16
2023-03-17T02:12:44.303Z,100061.47
2023-03-17T02:13:16.881Z,100058.78
2023-03-17T02:13:48.782Z,100066.72
2023-03-17T02:14:20.541Z,100064.94
2023-03-17T02:14:52.860Z,100063.22
2023-03-17T02:15:24.857Z,100064.97
2023-03-17T02:15:57.114Z,100064.97
2023-03-17T02:16:30.569Z,100061.50
2023-03-17T02:17:02.749Z,100069.38
2023-03-17T02:17:35.121Z,100067.63
2023-03-17T02:18:08.087Z,100066.75
2023-03-17T02:18:39.766Z,100069.38
2023-03-17T02:19:11.815Z,100067.69
2023-03-17T02:19:43.828Z,100064.13
2023-03-17T02:20:21.152Z,100067.66
2023-03-17T02:21:27.744Z,100066.78
2023-03-17T02:22:00.644Z,100069.44
2023-03-17T02:22:32.891Z,100071.19
2023-03-17T02:23:07.265Z,100068.63
2023-03-17T02:23:39.311Z,100071.25
2023-03-17T02:24:40.570Z,100072.09
2023-03-17T02:25:14.121Z,100076.50
2023-03-17T02:25:47.552Z,100077.38
2023-03-17T02:26:22.544Z,100076.53
2023-03-17T02:26:58.400Z,100076.50
2023-03-17T02:27:35.856Z,100071.25
2023-03-17T02:28:14.200Z,100072.06
2023-03-17T02:28:46.231Z,100072.09
2023-03-17T02:29:21.570Z,100069.47
2023-03-17T02:29:54.204Z,100072.94
2023-03-17T02:30:26.062Z,100072.94
2023-03-17T02:30:58.121Z,100075.56
2023-03-17T02:31:30.364Z,100070.31
2023-03-17T02:32:03.000Z,100069.44
2023-03-17T02:32:36.702Z,100070.31
2023-03-17T02:33:09.037Z,100067.75
2023-03-17T02:33:40.812Z,100073.00
2023-03-17T02:34:12.795Z,100073.88
2023-03-17T02:34:46.485Z,100075.63
2023-03-17T02:35:19.633Z,100073.00
2023-03-17T02:35:52.002Z,100076.53
2023-03-17T02:36:24.360Z,100076.53
2023-03-17T02:36:56.218Z,100079.16
2023-03-17T02:37:28.280Z,100067.84
2023-03-17T02:38:01.075Z,100074.84
2023-03-17T02:38:32.774Z,100074.84
2023-03-17T02:39:04.872Z,100069.59
2023-03-17T02:39:37.443Z,100076.59
2023-03-17T02:40:11.452Z,100070.50
2023-03-17T02:40:43.249Z,100077.41
2023-03-17T02:41:14.998Z,100080.97
2023-03-17T02:41:47.138Z,100075.72
2023-03-17T02:42:18.816Z,100078.38
2023-03-17T02:42:51.386Z,100077.50
2023-03-17T02:43:23.225Z,100074.06
2023-03-17T02:43:55.018Z,100074.94
2023-03-17T02:44:27.177Z,100080.19
2023-03-17T02:44:59.024Z,100074.94
2023-03-17T02:45:31.272Z,100076.72
2023-03-17T02:46:05.769Z,100074.91
2023-03-17T02:46:37.570Z,100075.75
2023-03-17T02:47:09.329Z,100065.28
2023-03-17T02:47:42.396Z,100073.16
2023-03-17T02:48:14.584Z,100067.84
2023-03-17T02:48:46.599Z,100073.97
2023-03-17T02:49:19.064Z,100078.34
2023-03-17T02:49:51.910Z,100077.47
2023-03-17T02:50:27.985Z,100070.47
2023-03-17T02:50:59.815Z,100071.38
2023-03-17T02:51:31.669Z,100069.63
2023-03-17T02:52:03.933Z,100076.63
2023-03-17T02:52:35.930Z,100072.25
2023-03-17T02:53:08.300Z,100061.81
2023-03-17T02:53:40.312Z,100072.31
2023-03-17T02:54:12.269Z,100074.03
2023-03-17T02:54:44.103Z,100071.41
2023-03-17T02:55:16.357Z,100067.06
2023-03-17T02:55:48.120Z,100071.47
2023-03-17T02:56:19.845Z,100073.25
2023-03-17T02:56:51.640Z,100069.75
2023-03-17T02:57:23.673Z,100078.47
2023-03-17T02:57:55.402Z,100069.78
2023-03-17T02:58:27.154Z,100063.72
2023-03-17T02:58:58.925Z,100067.22
2023-03-17T02:59:30.715Z,100068.13
2023-03-17T03:00:04.346Z,100057.69
2023-03-17T03:00:36.299Z,100062.91
2023-03-17T03:01:09.759Z,100072.53
2023-03-17T03:01:41.792Z,100064.69
2023-03-17T03:02:14.304Z,100059.50
2023-03-17T03:02:46.156Z,100062.06
2023-03-17T03:03:17.987Z,100056.81
2023-03-17T03:03:49.867Z,100055.13
2023-03-17T03:04:21.984Z,100055.13
2023-03-17T03:04:54.305Z,100055.06
2023-03-17T03:05:26.697Z,100054.19
2023-03-17T03:06:00.008Z,100049.88
2023-03-17T03:06:33.132Z,100055.94
2023-03-17T03:07:04.989Z,100048.13
2023-03-17T03:07:36.934Z,100059.50
2023-03-17T03:08:09.125Z,100055.13
2023-03-17T03:08:40.954Z,100063.84
2023-03-17T03:09:13.678Z,100062.13
2023-03-17T03:09:45.627Z,100064.78
2023-03-17T03:10:18.705Z,100064.78
2023-03-17T03:10:50.642Z,100064.78
2023-03-17T03:11:22.420Z,100071.81
2023-03-17T03:11:54.206Z,100068.31
2023-03-17T03:12:26.113Z,100070.94
2023-03-17T03:12:58.037Z,100076.22
2023-03-17T03:13:29.849Z,100070.16
2023-03-17T03:14:01.545Z,100073.66
2023-03-17T03:14:33.249Z,100071.91
2023-03-17T03:15:05.516Z,100077.09
2023-03-17T03:15:37.581Z,100078.81
2023-03-17T03:16:09.343Z,100077.97
2023-03-17T03:16:41.167Z,100073.63
2023-03-17T03:17:12.891Z,100075.34
2023-03-17T03:17:44.623Z,100071.91
2023-03-17T03:18:16.335Z,100079.72
2023-03-17T03:18:48.450Z,100081.47
2023-03-17T03:19:20.279Z,100078.81
2023-03-17T03:19:52.477Z,100083.22
2023-03-17T03:20:24.270Z,100065.78
2023-03-17T03:20:56.557Z,100077.09
2023-03-17T03:21:28.594Z,100078.91
2023-03-17T03:22:00.483Z,100087.59
2023-03-17T03:22:32.953Z,100085.81
2023-03-17T03:23:04.849Z,100087.56
2023-03-17T03:23:36.818Z,100090.16
2023-03-17T03:24:09.380Z,100088.47
2023-03-17T03:24:41.770Z,100095.41
2023-03-17T03:25:13.625Z,100088.41
2023-03-17T03:25:45.839Z,100084.00
2023-03-17T03:26:17.879Z,100088.38
2023-03-17T03:26:52.172Z,100080.53
2023-03-17T03:27:23.917Z,100082.25
2023-03-17T03:27:55.698Z,100076.94
2023-03-17T03:28:27.435Z,100088.28
2023-03-17T03:29:00.112Z,100079.53
2023-03-17T03:29:32.128Z,100078.66
2023-03-17T03:30:05.439Z,100083.03
2023-03-17T03:30:38.595Z,100078.63
2023-03-17T03:31:10.494Z,100076.06
2023-03-17T03:31:42.557Z,100078.69
2023-03-17T03:32:14.508Z,100074.34
2023-03-17T03:32:47.796Z,100078.66
2023-03-17T03:33:19.771Z,100076.09
2023-03-17T03:33:51.645Z,100081.31
2023-03-17T03:34:23.410Z,100086.53
2023-03-17T03:34:55.141Z,100081.31
2023-03-17T03:35:28.573Z,100083.91
2023-03-17T03:36:00.518Z,100083.88
2023-03-17T03:36:32.434Z,100082.16
2023-03-17T03:37:04.316Z,100090.03
2023-03-17T03:37:36.658Z,100080.38
2023-03-17T03:38:09.263Z,100074.25
2023-03-17T03:38:41.696Z,100079.50
2023-03-17T03:39:14.434Z,100079.50
2023-03-17T03:39:46.515Z,100081.25
2023-03-17T03:40:18.339Z,100077.75
2023-03-17T03:40:50.170Z,100086.50
2023-03-17T03:41:21.928Z,100076.88
2023-03-17T03:41:57.368Z,100083.91
2023-03-17T03:42:29.120Z,100090.91
2023-03-17T03:43:07.470Z,100088.28
2023-03-17T03:43:44.989Z,100093.56
2023-03-17T03:44:16.738Z,100093.53
2023-03-17T03:44:48.452Z,100103.16
2023-03-17T03:45:20.375Z,100097.91
2023-03-17T03:45:52.563Z,100087.38
2023-03-17T03:46:24.335Z,100102.22
2023-03-17T03:46:56.172Z,100099.66
2023-03-17T03:47:27.921Z,100095.28
2023-03-17T03:48:02.305Z,100091.84
2023-03-17T03:48:34.089Z,100087.47
2023-03-17T03:49:05.912Z,100090.09
2023-03-17T03:49:37.614Z,100094.44
2023-03-17T03:50:10.783Z,100095.28
2023-03-17T03:50:42.483Z,100088.34
2023-03-17T03:51:14.240Z,100091.00
2023-03-17T03:51:46.000Z,100089.25
2023-03-17T03:52:17.766Z,100090.09
2023-03-17T03:52:49.656Z,100085.75
2023-03-17T03:53:21.415Z,100088.34
2023-03-17T03:53:53.172Z,100093.56
2023-03-17T03:54:24.964Z,100092.69
2023-03-17T03:54:56.668Z,100084.00
2023-03-17T03:55:28.417Z,100087.50
2023-03-17T03:56:01.121Z,100091.00
2023-03-17T03:56:33.009Z,100089.25
2023-03-17T03:57:04.933Z,100085.75
2023-03-17T03:57:36.745Z,100091.88
2023-03-17T03:58:08.966Z,100084.00
2023-03-17T03:58:41.938Z,100087.50
2023-03-17T03:59:15.143Z,100089.28
2023-03-17T03:59:46.846Z,100085.81
2023-03-17T04:00:18.784Z,100084.94
2023-03-17T04:00:51.268Z,100084.06
2023-03-17T04:01:23.037Z,100078.81
2023-03-17T04:01:54.843Z,100079.69
2023-03-17T04:02:27.143Z,100081.44
2023-03-17T04:03:00.342Z,100080.53
2023-03-17T04:03:33.097Z,100083.13
2023-03-17T04:04:04.985Z,100075.28
2023-03-17T04:04:37.089Z,100077.88
2023-03-17T04:05:09.648Z,100083.13
2023-03-17T04:05:41.971Z,100082.31
2023-03-17T04:06:13.769Z,100081.38
2023-03-17T04:06:45.474Z,100077.03
2023-03-17T04:07:17.207Z,100076.13
2023-03-17T04:07:49.044Z,100078.72
2023-03-17T04:08:21.004Z,100076.09
2023-03-17T04:08:52.731Z,100079.59
2023-03-17T04:09:24.490Z,100078.72
2023-03-17T04:09:56.963Z,100070.91
2023-03-17T04:10:29.195Z,100073.47
2023-03-17T04:11:01.122Z,100077.03
2023-03-17T04:11:32.921Z,100063.06
2023-03-17T04:12:05.322Z,100077.06
2023-03-17T04:12:37.077Z,100068.38
2023-03-17T04:13:08.839Z,100078.81
2023-03-17T04:13:40.648Z,100075.41
2023-03-17T04:14:12.792Z,100069.28
2023-03-17T04:14:44.923Z,100078.03
2023-03-17T04:15:19.705Z,100079.81
2023-03-17T04:15:51.761Z,100082.47
2023-03-17T04:16:23.539Z,100090.34
2023-03-17T04:16:55.894Z,100087.72
2023-03-17T04:17:27.701Z,100092.13
2023-03-17T04:17:59.403Z,100083.38
2023-03-17T04:18:31.748Z,100091.25
2023-03-17T04:19:03.835Z,100082.47
2023-03-17T04:19:35.578Z,100092.13
2023-03-17T04:20:07.893Z,100083.38
2023-03-17T04:20:39.649Z,100085.09
2023-03-17T04:21:11.490Z,100076.41
2023-03-17T04:21:43.326Z,100085.97
2023-03-17T04:22:15.265Z,100090.34
2023-03-17T04:22:47.184Z,100084.22
2023-03-17T04:23:19.176Z,100090.28
2023-03-17T04:23:50.946Z,100080.69
2023-03-17T04:24:22.775Z,100094.63
2023-03-17T04:24:54.629Z,100083.25
2023-03-17T04:25:27.017Z,100088.50
2023-03-17T04:25:59.135Z,100089.34
2023-03-17T04:26:32.467Z,100089.34
2023-03-17T04:27:06.145Z,100090.22
2023-03-17T04:27:38.385Z,100091.97
2023-03-17T04:28:10.429Z,100089.34
2023-03-17T04:28:42.144Z,100094.56
2023-03-17T04:29:15.849Z,100093.75
2023-03-17T04:29:47.639Z,100093.75
2023-03-17T04:30:19.419Z,100098.13
2023-03-17T04:30:51.128Z,100085.06
2023-03-17T04:31:23.180Z,100088.53
2023-03-17T04:31:54.985Z,100101.66
2023-03-17T04:32:27.377Z,100097.28
2023-03-17T04:32:59.198Z,100093.78
2023-03-17T04:33:30.960Z,100095.56
2023-03-17T04:34:02.736Z,100095.59
2023-03-17T04:34:34.518Z,100094.75
2023-03-17T04:35:09.187Z,100097.38
2023-03-17T04:35:41.594Z,100097.41
2023-03-17T04:36:24.171Z,100097.25
2023-03-17T04:36:56.289Z,100105.91
2023-03-17T04:37:28.037Z,100099.88
2023-03-17T04:37:59.811Z,100093.78
2023-03-17T04:38:31.527Z,100093.78
2023-03-17T04:39:03.948Z,100098.13
2023-03-17T04:39:35.889Z,100090.34
2023-03-17T04:40:10.126Z,100094.72
2023-03-17T04:40:41.906Z,100101.69
2023-03-17T04:41:13.717Z,100097.38
2023-03-17T04:41:46.510Z,100095.66
2023-03-17T04:42:18.366Z,100102.59
2023-03-17T04:42:50.175Z,100101.72
2023-03-17T04:43:21.883Z,100104.34
2023-03-17T04:43:53.587Z,100091.28
2023-03-17T04:44:25.374Z,100103.47
2023-03-17T04:44:57.566Z,100093.91
2023-03-17T04:45:29.559Z,100102.63
2023-03-17T04:46:01.405Z,100107.00
2023-03-17T04:46:34.031Z,100105.28
2023-03-17T04:47:06.065Z,100108.75
2023-03-17T04:47:39.458Z,100110.47
2023-03-17T04:48:11.247Z,100107.84
2023-03-17T04:48:42.953Z,100108.72
2023-03-17T04:49:14.782Z,100107.84
2023-03-17T04:49:46.683Z,100111.34
2023-03-17T04:50:18.488Z,100111.34
2023-03-17T04:50:50.293Z,100111.34
2023-03-17T04:51:22.001Z,100107.84
2023-03-17T04:51:53.735Z,100102.66
2023-03-17T04:52:25.699Z,100107.88
2023-03-17T04:52:57.397Z,100104.41
2023-03-17T04:53:29.145Z,100105.28
2023-03-17T04:54:01.718Z,100105.28
2023-03-17T04:54:33.635Z,100107.88
2023-03-17T04:55:08.448Z,100108.75
2023-03-17T04:55:40.742Z,100112.25
2023-03-17T04:56:12.926Z,100112.28
2023-03-17T04:56:44.831Z,100114.88
2023-03-17T04:57:16.592Z,100111.41
2023-03-17T04:57:48.356Z,100114.03
2023-03-17T04:58:30.492Z,100115.75
2023-03-17T04:59:03.334Z,100117.50
2023-03-17T04:59:35.082Z,100111.38
2023-03-17T05:00:08.418Z,100113.13
2023-03-17T05:00:40.233Z,100107.88
2023-03-17T05:01:12.165Z,100110.50
2023-03-17T05:01:44.287Z,100110.47
2023-03-17T05:02:16.061Z,100106.09
2023-03-17T05:02:47.936Z,100104.31
2023-03-17T05:03:26.730Z,100103.47
2023-03-17T05:03:59.526Z,100107.81
2023-03-17T05:04:32.461Z,100108.66
2023-03-17T05:05:05.126Z,100105.16
2023-03-17T05:05:36.897Z,100103.41
2023-03-17T05:06:08.716Z,100113.84
2023-03-17T05:06:40.741Z,100112.97
2023-03-17T05:07:13.015Z,100115.50
2023-03-17T05:07:44.990Z,100107.66
2023-03-17T05:08:17.228Z,100105.06
2023-03-17T05:08:49.146Z,100100.66
2023-03-17T05:09:20.951Z,100107.66
2023-03-17T05:09:52.646Z,100095.38
2023-03-17T05:10:24.677Z,100107.53
2023-03-17T05:10:57.437Z,100107.47
2023-03-17T05:11:29.198Z,100103.97
2023-03-17T05:12:01.084Z,100094.31
2023-03-17T05:12:32.825Z,100101.25
2023-03-17T05:13:04.603Z,100111.66
2023-03-17T05:13:36.503Z,100103.78
2023-03-17T05:14:08.414Z,100102.03
2023-03-17T05:14:40.617Z,100109.00
2023-03-17T05:15:12.409Z,100100.19
2023-03-17T05:15:48.818Z,100101.94
2023-03-17T05:16:20.771Z,100114.97
2023-03-17T05:16:52.571Z,100108.84
2023-03-17T05:17:24.685Z,100113.25
2023-03-17T05:17:56.885Z,100116.63
2023-03-17T05:18:31.750Z,100114.00
2023-03-17T05:19:03.900Z,100113.03
2023-03-17T05:19:35.620Z,100118.16
2023-03-17T05:20:08.609Z,100118.97
2023-03-17T05:20:40.494Z,100109.25
2023-03-17T05:21:12.558Z,100105.72
2023-03-17T05:21:44.755Z,100105.63
2023-03-17T05:22:16.511Z,100111.66
2023-03-17T05:22:48.267Z,100112.47
2023-03-17T05:23:20.737Z,100110.56
2023-03-17T05:23:54.898Z,100109.56
2023-03-17T05:24:27.150Z,100114.75
2023-03-17T05:24:59.100Z,100110.31
2023-03-17T05:25:30.916Z,100110.25
2023-03-17T05:26:03.043Z,100115.41
2023-03-17T05:26:35.193Z,100114.50
2023-03-17T05:27:07.037Z,100114.41
2023-03-17T05:27:39.500Z,100109.06
2023-03-17T05:28:11.563Z,100113.44
2023-03-17T05:28:43.314Z,100118.66
2023-03-17T05:29:15.141Z,100115.94
2023-03-17T05:29:47.674Z,100118.44
2023-03-17T05:30:19.501Z,100118.47
2023-03-17T05:30:52.150Z,100118.41
2023-03-17T05:31:23.993Z,100118.38
2023-03-17T05:31:55.775Z,100121.88
2023-03-17T05:32:27.502Z,100114.78
2023-03-17T05:32:59.469Z,100111.19
2023-03-17T05:33:31.287Z,100121.69
2023-03-17T05:34:04.392Z,100114.72
2023-03-17T05:34:36.138Z,100119.91
2023-03-17T05:35:08.163Z,100118.13
2023-03-17T05:35:40.811Z,100120.75
2023-03-17T05:36:13.416Z,100118.94
2023-03-17T05:36:46.490Z,100117.97
2023-03-17T05:37:18.648Z,100118.84
2023-03-17T05:37:50.370Z,100117.03
2023-03-17T05:38:22.126Z,100111.78
2023-03-17T05:38:53.916Z,100120.44
2023-03-17T05:39:25.656Z,100116.88
2023-03-17T05:39:57.746Z,100118.56
2023-03-17T05:40:30.595Z,100118.56
2023-03-17T05:41:04.176Z,100119.38
2023-03-17T05:41:36.426Z,100116.66
2023-03-17T05:42:08.669Z,100116.59
2023-03-17T05:42:41.968Z,100115.50
2023-03-17T05:43:14.116Z,100109.38
2023-03-17T05:43:46.204Z,100119.78
2023-03-17T05:44:17.889Z,100119.66
2023-03-17T05:44:49.994Z,100116.94
2023-03-17T05:45:22.211Z,100115.91
2023-03-17T05:45:53.994Z,100116.56
2023-03-17T05:46:29.086Z,100115.53
2023-03-17T05:47:01.257Z,100115.41
2023-03-17T05:47:33.601Z,100120.53
2023-03-17T05:48:05.404Z,100116.91
2023-03-17T05:48:37.301Z,100118.50
2023-03-17T05:49:09.091Z,100124.66
2023-03-17T05:49:40.947Z,100122.91
2023-03-17T05:50:13.068Z,100124.59
2023-03-17T05:50:44.854Z,100126.44
2023-03-17T05:51:16.774Z,100129.94
2023-03-17T05:51:48.502Z,100122.72
2023-03-17T05:52:20.200Z,100121.00
2023-03-17T05:52:52.327Z,100129.69
2023-03-17T05:53:24.440Z,100121.78
2023-03-17T05:53:56.686Z,100126.19
2023-03-17T05:54:28.455Z,100128.63
2023-03-17T05:55:00.210Z,100133.00
2023-03-17T05:55:32.244Z,100122.41
2023-03-17T05:56:04.273Z,100129.34
2023-03-17T05:56:36.057Z,100129.44
2023-03-17T05:57:07.954Z,100124.25
2023-03-17T05:57:39.676Z,100131.19
2023-03-17T05:58:11.464Z,100130.16
2023-03-17T05:58:43.165Z,100131.81
2023-03-17T05:59:16.887Z,100132.56
2023-03-17T05:59:49.240Z,100133.28
2023-03-17T06:00:21.689Z,100126.19
2023-03-17T06:00:53.775Z,100135.84
2023-03-17T06:01:25.807Z,100129.56
2023-03-17T06:01:57.653Z,100126.78
2023-03-17T06:02:29.526Z,100127.38
2023-03-17T06:03:02.437Z,100130.00
2023-03-17T06:03:34.221Z,100122.00
2023-03-17T06:04:06.308Z,100121.09
2023-03-17T06:04:38.417Z,100127.06
2023-03-17T06:05:10.766Z,100124.34
2023-03-17T06:05:42.643Z,100123.38
2023-03-17T06:06:14.324Z,100117.91
2023-03-17T06:06:46.406Z,100122.94
2023-03-17T06:07:18.174Z,100129.88
2023-03-17T06:07:54.810Z,100121.97
2023-03-17T06:08:28.103Z,100121.19
2023-03-17T06:09:00.243Z,100114.97
2023-03-17T06:09:33.548Z,100117.38
2023-03-17T06:10:06.858Z,100120.88
2023-03-17T06:10:38.619Z,100121.66
2023-03-17T06:11:10.697Z,100121.56
2023-03-17T06:11:44.036Z,100125.09
2023-03-17T06:12:16.329Z,100114.13
2023-03-17T06:12:48.095Z,100123.78
2023-03-17T06:13:20.090Z,100117.53
2023-03-17T06:13:51.885Z,100121.66
2023-03-17T06:14:25.958Z,100126.94
2023-03-17T06:14:58.699Z,100128.84
2023-03-17T06:15:31.097Z,100121.75
2023-03-17T06:16:03.327Z,100125.13
2023-03-17T06:16:35.224Z,100124.19
2023-03-17T06:17:07.444Z,100131.69
2023-03-17T06:17:39.205Z,100123.75
2023-03-17T06:18:11.118Z,100123.94